createdAt,value
2017-10-18T00:00:42.266Z,90.90
2017-10-18T00:03:11.127Z,90.80
2017-10-18T00:05:40.003Z,90.70
2017-10-18T00:08:08.850Z,90.70
2017-10-18T00:10:37.707Z,90.80
2017-10-18T00:13:06.572Z,90.80
2017-10-18T00:15:42.079Z,90.80
2017-10-18T00:18:10.949Z,90.90
2017-10-18T00:20:44.534Z,90.90
2017-10-18T00:23:14.216Z,91.00
2017-10-18T00:25:43.115Z,90.90
2017-10-18T00:28:12.059Z,90.90
2017-10-18T00:30:40.919Z,90.80
2017-10-18T00:33:10.568Z,90.80
2017-10-18T00:35:39.442Z,90.80
2017-10-18T00:38:08.292Z,90.70
2017-10-18T00:40:37.158Z,90.70
2017-10-18T00:43:06.007Z,90.80
2017-10-18T00:45:34.866Z,90.70
2017-10-18T00:48:03.551Z,90.70
2017-10-18T00:50:32.221Z,90.90
2017-10-18T00:53:00.875Z,90.60
2017-10-18T00:55:29.714Z,90.70
2017-10-18T00:57:58.570Z,90.80
2017-10-18T01:00:27.422Z,90.90
2017-10-18T01:02:56.868Z,91.00
2017-10-18T01:05:25.739Z,90.90
2017-10-18T01:07:54.598Z,90.90
2017-10-18T01:10:23.450Z,90.90
2017-10-18T01:12:52.299Z,90.90
2017-10-18T01:15:21.168Z,90.80
2017-10-18T01:17:50.800Z,91.10
2017-10-18T01:20:19.303Z,91.10
2017-10-18T01:22:48.147Z,91.10
2017-10-18T01:25:17.788Z,91.00
2017-10-18T01:27:47.424Z,91.10
2017-10-18T01:30:16.286Z,91.00
2017-10-18T01:32:45.144Z,91.10
2017-10-18T01:35:13.994Z,91.10
2017-10-18T01:37:42.835Z,91.10
2017-10-18T01:40:12.494Z,91.10
2017-10-18T01:42:41.359Z,91.10
2017-10-18T01:45:10.210Z,91.00
2017-10-18T01:47:39.061Z,91.00
2017-10-18T01:50:07.891Z,91.10
2017-10-18T01:52:36.751Z,91.10
2017-10-18T01:55:05.614Z,91.20
2017-10-18T01:57:35.258Z,91.10
2017-10-18T02:00:04.446Z,91.20
2017-10-18T02:02:33.312Z,91.10
2017-10-18T02:05:03.924Z,91.40
2017-10-18T02:07:33.555Z,91.20
2017-10-18T02:10:02.402Z,91.20
2017-10-18T02:12:32.057Z,91.20
2017-10-18T02:15:00.738Z,91.30
2017-10-18T02:17:29.632Z,91.30
2017-10-18T02:19:59.259Z,91.60
2017-10-18T02:22:28.119Z,91.60
2017-10-18T02:24:56.983Z,91.50
2017-10-18T02:27:25.831Z,91.80
2017-10-18T02:29:54.723Z,91.60
2017-10-18T02:32:23.599Z,91.60
2017-10-18T02:34:52.457Z,91.60
2017-10-18T02:37:22.080Z,91.70
2017-10-18T02:39:50.940Z,91.70
2017-10-18T02:42:19.782Z,91.90
2017-10-18T02:44:48.622Z,91.90
2017-10-18T02:47:17.463Z,91.80
2017-10-18T02:49:46.311Z,91.80
2017-10-18T02:52:15.161Z,91.80
2017-10-18T02:54:43.833Z,91.70
2017-10-18T02:57:12.520Z,91.60
2017-10-18T02:59:41.549Z,91.70
2017-10-18T03:02:10.059Z,91.70
2017-10-18T03:04:39.713Z,91.70
2017-10-18T03:07:08.581Z,91.70
2017-10-18T03:09:38.204Z,91.60
2017-10-18T03:12:07.059Z,91.60
2017-10-18T03:14:36.787Z,91.90
2017-10-18T03:17:06.415Z,91.60
2017-10-18T03:19:35.268Z,91.60
2017-10-18T03:22:04.550Z,91.70
2017-10-18T03:24:33.411Z,91.70
2017-10-18T03:27:02.280Z,91.70
2017-10-18T03:29:31.133Z,91.70
2017-10-18T03:31:59.650Z,91.80
2017-10-18T03:34:28.166Z,91.80
2017-10-18T03:36:57.039Z,91.90
2017-10-18T03:39:25.222Z,91.90
2017-10-18T03:41:54.087Z,91.90
2017-10-18T03:44:23.520Z,91.80
2017-10-18T03:46:52.419Z,91.80
2017-10-18T03:49:21.291Z,91.90
2017-10-18T03:51:50.161Z,92.00
2017-10-18T03:54:19.604Z,92.00
2017-10-18T03:56:48.488Z,92.00
2017-10-18T03:59:17.358Z,92.00
2017-10-18T04:01:46.247Z,92.00
2017-10-18T04:04:15.098Z,92.00
2017-10-18T04:06:43.960Z,92.10
2017-10-18T04:09:13.130Z,92.10
2017-10-18T04:11:42.007Z,92.20
2017-10-18T04:14:11.637Z,92.20
2017-10-18T04:16:40.494Z,92.30
2017-10-18T04:19:09.375Z,92.20
2017-10-18T04:21:38.264Z,92.30
2017-10-18T04:24:09.004Z,92.30
2017-10-18T04:26:40.237Z,92.40
2017-10-18T04:29:09.088Z,92.40
2017-10-18T04:31:38.022Z,92.40
2017-10-18T04:34:06.919Z,92.40
2017-10-18T04:36:35.828Z,92.40
2017-10-18T04:39:03.823Z,92.40
2017-10-18T04:41:32.666Z,92.40
2017-10-18T04:44:01.522Z,92.40
2017-10-18T04:46:30.472Z,92.50
2017-10-18T04:49:00.109Z,92.50
2017-10-18T04:51:28.966Z,92.50
2017-10-18T04:53:58.595Z,92.70
2017-10-18T04:56:28.219Z,92.60
2017-10-18T04:58:57.067Z,92.60
2017-10-18T05:01:25.927Z,92.50
2017-10-18T05:03:54.850Z,92.80
2017-10-18T05:06:25.883Z,92.80
2017-10-18T05:08:54.405Z,92.80
2017-10-18T05:11:23.159Z,92.90
2017-10-18T05:13:52.936Z,92.90
2017-10-18T05:16:21.480Z,93.10
2017-10-18T05:18:51.102Z,93.40
2017-10-18T05:21:19.646Z,93.40
2017-10-18T05:23:48.523Z,93.60
2017-10-18T05:26:17.202Z,93.80
2017-10-18T05:28:46.059Z,93.80
2017-10-18T05:31:15.663Z,93.90
2017-10-18T05:33:45.277Z,93.90
2017-10-18T05:36:14.120Z,93.80
2017-10-18T05:38:43.831Z,93.80
2017-10-18T05:41:12.699Z,93.70
2017-10-18T05:43:41.564Z,93.60
2017-10-18T05:46:10.402Z,93.70
2017-10-18T05:48:39.357Z,93.60
2017-10-18T05:51:08.015Z,93.70
2017-10-18T05:53:37.627Z,93.80
2017-10-18T05:56:07.234Z,93.80
2017-10-18T05:58:36.912Z,93.90
2017-10-18T06:01:05.855Z,93.80
2017-10-18T06:03:34.706Z,93.80
2017-10-18T06:06:03.552Z,93.80
2017-10-18T06:08:32.400Z,93.80
2017-10-18T06:11:01.251Z,93.70
2017-10-18T06:13:30.097Z,93.80
2017-10-18T06:15:59.718Z,94.00
2017-10-18T06:18:29.311Z,94.00
2017-10-18T06:20:58.832Z,94.30
2017-10-18T06:23:27.514Z,93.90
2017-10-18T06:25:56.253Z,93.90
2017-10-18T06:28:24.943Z,94.00
2017-10-18T06:30:53.803Z,94.10
2017-10-18T06:33:22.670Z,94.20
2017-10-18T06:35:51.519Z,94.10
2017-10-18T06:38:20.184Z,94.00
2017-10-18T06:40:49.043Z,93.90
2017-10-18T06:43:18.660Z,93.70
2017-10-18T06:45:48.109Z,93.70
2017-10-18T06:48:16.982Z,93.60
2017-10-18T06:50:45.886Z,93.60
2017-10-18T06:53:14.761Z,93.50
2017-10-18T06:55:43.623Z,93.40
2017-10-18T06:58:12.863Z,93.40
2017-10-18T07:00:41.733Z,93.50
2017-10-18T07:03:10.614Z,93.50
2017-10-18T07:05:40.035Z,93.50
2017-10-18T07:08:08.887Z,93.50
2017-10-18T07:10:37.755Z,93.60
2017-10-18T07:13:06.625Z,93.60
2017-10-18T07:15:34.832Z,93.70
2017-10-18T07:18:04.469Z,93.50
2017-10-18T07:20:53.426Z,93.50
2017-10-18T07:23:22.307Z,93.40
2017-10-18T07:25:51.191Z,93.20
2017-10-18T07:28:20.822Z,93.10
2017-10-18T07:30:49.683Z,93.10
2017-10-18T07:33:19.341Z,93.10
2017-10-18T07:35:49.752Z,93.10
2017-10-18T07:38:19.531Z,93.10
2017-10-18T07:43:25.993Z,93.00
2017-10-18T07:46:00.152Z,92.70
2017-10-18T07:48:29.019Z,92.60
2017-10-18T07:50:58.541Z,92.60
2017-10-18T08:03:50.916Z,91.60
2017-10-18T08:06:20.264Z,91.60
2017-10-18T08:08:49.897Z,91.30
2017-10-18T08:11:23.534Z,91.30
2017-10-18T08:13:52.899Z,91.10
2017-10-18T08:16:26.339Z,90.80
2017-10-18T08:18:55.241Z,90.80
2017-10-18T08:21:25.474Z,90.50
2017-10-18T08:23:55.253Z,90.20
2017-10-18T08:26:25.032Z,89.80
2017-10-18T08:28:56.083Z,89.60
2017-10-18T08:31:26.587Z,88.50
2017-10-18T08:33:57.804Z,87.30
2017-10-18T08:36:27.223Z,87.20
2017-10-18T08:38:58.015Z,86.20
2017-10-18T08:41:27.543Z,86.70
2017-10-18T08:46:31.146Z,85.00
2017-10-18T08:49:00.858Z,84.80
2017-10-18T08:51:30.198Z,83.80
2017-10-18T08:53:59.069Z,83.60
2017-10-18T08:56:28.786Z,83.10
2017-10-18T08:58:57.628Z,82.90
2017-10-18T09:01:25.794Z,82.30
2017-10-18T09:03:54.460Z,81.80
2017-10-18T09:06:24.318Z,80.80
2017-10-18T09:08:53.162Z,80.60
2017-10-18T09:11:22.610Z,80.20
2017-10-18T09:13:51.290Z,80.20
2017-10-18T09:16:20.263Z,80.40
2017-10-18T09:18:49.135Z,80.60
2017-10-18T09:21:17.986Z,80.00
2017-10-18T09:23:46.870Z,79.80
2017-10-18T09:26:15.731Z,79.20
2017-10-18T09:28:45.391Z,79.20
2017-10-18T09:31:14.247Z,79.10
2017-10-18T09:33:44.675Z,78.60
2017-10-18T09:36:13.538Z,78.30
2017-10-18T09:38:43.164Z,77.40
2017-10-18T09:41:12.852Z,77.30
2017-10-18T09:43:42.470Z,76.50
2017-10-18T09:46:11.335Z,76.50
2017-10-18T09:48:40.175Z,76.30
2017-10-18T09:51:09.095Z,75.40
2017-10-18T09:53:37.987Z,75.40
2017-10-18T09:56:06.841Z,75.20
2017-10-18T09:58:35.692Z,74.70
2017-10-18T10:01:05.481Z,74.50
2017-10-18T10:03:34.977Z,74.20
2017-10-18T10:06:04.248Z,73.50
2017-10-18T10:08:33.111Z,73.50
2017-10-18T10:11:02.555Z,73.00
2017-10-18T10:13:32.199Z,72.90
2017-10-18T10:16:01.663Z,72.30
2017-10-18T10:18:30.534Z,71.40
2017-10-18T10:21:00.170Z,70.30
2017-10-18T10:23:29.036Z,70.30
2017-10-18T10:25:58.815Z,69.80
2017-10-18T10:28:27.670Z,69.20
2017-10-18T10:30:56.526Z,68.30
2017-10-18T10:33:26.173Z,67.20
2017-10-18T10:35:54.850Z,67.00
2017-10-18T10:38:23.350Z,66.80
2017-10-18T10:40:52.210Z,66.10
2017-10-18T10:43:21.056Z,65.90
2017-10-18T10:45:49.910Z,65.30
2017-10-18T10:48:18.768Z,64.80
2017-10-18T10:50:48.398Z,64.10
2017-10-18T10:53:17.263Z,64.00
2017-10-18T10:55:46.902Z,63.10
2017-10-18T10:58:15.791Z,63.10
2017-10-18T11:00:44.680Z,62.90
2017-10-18T11:03:13.530Z,62.50
2017-10-18T11:05:42.225Z,62.50
2017-10-18T11:08:11.078Z,62.10
2017-10-18T11:10:40.175Z,61.40
2017-10-18T11:13:09.038Z,60.80
2017-10-18T11:15:37.923Z,60.80
2017-10-18T11:18:08.276Z,59.60
2017-10-18T11:20:37.140Z,59.50
2017-10-18T11:23:06.078Z,59.00
2017-10-18T11:25:34.939Z,58.90
2017-10-18T11:28:03.795Z,58.20
2017-10-18T11:30:33.429Z,58.30
2017-10-18T11:33:03.150Z,58.30
2017-10-18T11:35:32.808Z,58.00
2017-10-18T11:38:01.942Z,57.70
2017-10-18T11:40:30.839Z,57.50
2017-10-18T11:42:59.693Z,57.30
2017-10-18T11:45:29.327Z,57.20
2017-10-18T11:47:58.944Z,56.30
2017-10-18T11:50:28.635Z,56.30
2017-10-18T11:52:58.263Z,55.90
2017-10-18T11:55:27.120Z,55.80
2017-10-18T11:57:56.005Z,56.00
2017-10-18T12:00:24.874Z,56.10
2017-10-18T12:02:53.815Z,56.90
2017-10-18T12:05:23.426Z,56.40
2017-10-18T12:07:53.042Z,56.70
2017-10-18T12:10:21.908Z,56.60
2017-10-18T12:12:50.738Z,57.30
2017-10-18T12:15:19.605Z,57.60
2017-10-18T12:17:48.488Z,57.50
2017-10-18T12:20:18.119Z,57.20
2017-10-18T12:22:46.970Z,57.20
2017-10-18T12:25:15.822Z,57.20
2017-10-18T12:27:44.686Z,57.20
2017-10-18T12:30:13.632Z,57.40
2017-10-18T12:32:42.502Z,57.60
2017-10-18T12:35:11.379Z,57.90
2017-10-18T12:37:41.850Z,58.20
2017-10-18T12:40:10.731Z,58.10
2017-10-18T12:42:39.605Z,58.20
2017-10-18T12:45:08.510Z,58.40
2017-10-18T12:47:37.393Z,58.50
2017-10-18T12:50:06.259Z,58.40
2017-10-18T12:52:35.118Z,58.40
2017-10-18T12:55:04.758Z,58.50
2017-10-18T12:57:33.630Z,58.50
2017-10-18T13:00:03.253Z,58.90
2017-10-18T13:02:32.011Z,58.80
2017-10-18T13:05:02.530Z,58.70
2017-10-18T13:07:32.615Z,58.70
2017-10-18T13:10:02.732Z,58.90
2017-10-18T13:12:31.647Z,59.00
2017-10-18T13:15:00.532Z,59.30
2017-10-18T13:17:30.862Z,59.40
2017-10-18T13:20:00.642Z,59.40
2017-10-18T13:22:30.455Z,59.60
2017-10-18T13:24:59.345Z,59.70
2017-10-18T13:27:28.240Z,59.80
2017-10-18T13:29:57.153Z,59.90
2017-10-18T13:32:26.125Z,59.90
2017-10-18T13:34:54.714Z,60.10
2017-10-18T13:37:23.273Z,60.20
2017-10-18T13:39:52.132Z,60.30
2017-10-18T13:42:20.980Z,60.30
2017-10-18T13:44:49.844Z,60.40
2017-10-18T13:47:19.576Z,60.70
2017-10-18T13:49:48.446Z,60.60
2017-10-18T13:52:18.213Z,61.00
2017-10-18T13:54:47.111Z,60.90
2017-10-18T13:57:16.005Z,61.00
2017-10-18T13:59:45.158Z,61.20
2017-10-18T14:02:14.023Z,61.30
2017-10-18T14:04:44.705Z,61.50
2017-10-18T14:07:14.459Z,61.70
2017-10-18T14:09:43.160Z,61.40
2017-10-18T14:12:12.778Z,61.10
2017-10-18T14:14:42.411Z,60.80
2017-10-18T14:17:11.315Z,60.80
2017-10-18T14:19:40.931Z,60.60
2017-10-18T14:22:10.923Z,60.50
2017-10-18T14:24:40.402Z,60.60
2017-10-18T14:27:10.023Z,60.30
2017-10-18T14:29:38.618Z,60.20
2017-10-18T14:32:07.287Z,60.10
2017-10-18T14:34:36.905Z,59.40
2017-10-18T14:37:06.135Z,59.40
2017-10-18T14:39:35.000Z,59.30
2017-10-18T14:42:03.886Z,59.30
2017-10-18T14:44:32.771Z,59.30
2017-10-18T14:47:02.430Z,59.90
2017-10-18T14:49:31.320Z,59.80
2017-10-18T14:52:01.183Z,60.40
2017-10-18T14:54:30.744Z,61.50
2017-10-18T14:56:59.631Z,61.50
2017-10-18T14:59:28.498Z,62.10
2017-10-18T15:01:57.624Z,62.70
2017-10-18T15:04:27.303Z,63.10
2017-10-18T15:06:56.203Z,63.50
2017-10-18T15:09:25.080Z,64.00
2017-10-18T15:11:53.962Z,64.50
2017-10-18T15:14:24.188Z,65.40
2017-10-18T15:16:53.055Z,65.30
2017-10-18T15:19:22.708Z,66.70
2017-10-18T15:21:51.570Z,66.40
2017-10-18T15:24:21.022Z,67.30
2017-10-18T15:26:49.411Z,67.20
2017-10-18T15:29:18.170Z,67.70
2017-10-18T15:31:47.054Z,68.30
2017-10-18T15:34:15.722Z,68.70
2017-10-18T15:36:45.345Z,69.50
2017-10-18T15:39:14.195Z,69.50
2017-10-18T15:41:43.995Z,69.80
2017-10-18T15:44:12.857Z,70.30
2017-10-18T15:46:42.569Z,70.60
2017-10-18T15:49:12.279Z,70.60
2017-10-18T15:51:42.211Z,71.10
2017-10-18T15:54:11.084Z,71.60
2017-10-18T15:56:39.942Z,71.80
2017-10-18T15:59:09.568Z,72.40
2017-10-18T16:01:39.225Z,72.40
2017-10-18T16:04:08.098Z,72.70
2017-10-18T16:06:37.289Z,73.10
2017-10-18T16:09:05.490Z,73.40
2017-10-18T16:11:34.340Z,73.80
2017-10-18T16:14:03.878Z,74.00
2017-10-18T16:16:32.739Z,74.00
2017-10-18T16:19:01.406Z,74.30
2017-10-18T16:21:31.044Z,75.00
2017-10-18T16:23:59.910Z,75.00
2017-10-18T16:26:29.526Z,75.60
2017-10-18T16:28:59.146Z,75.90
2017-10-18T16:31:30.150Z,75.90
2017-10-18T16:33:59.784Z,76.20
2017-10-18T16:36:29.040Z,76.20
2017-10-18T16:38:57.936Z,76.60
2017-10-18T16:41:26.831Z,76.90
2017-10-18T16:43:55.517Z,77.00
2017-10-18T16:46:24.390Z,77.10
2017-10-18T16:48:53.079Z,77.90
2017-10-18T16:51:21.950Z,77.40
2017-10-18T16:53:50.808Z,77.60
2017-10-18T16:56:21.174Z,78.00
2017-10-18T16:58:50.923Z,78.00
2017-10-18T17:01:19.785Z,78.10
2017-10-18T17:03:48.678Z,78.30
2017-10-18T17:06:17.560Z,78.60
2017-10-18T17:08:46.326Z,78.80
2017-10-18T17:11:15.312Z,78.90
2017-10-18T17:13:44.938Z,79.10
2017-10-18T17:16:13.812Z,79.10
2017-10-18T17:18:42.693Z,79.30
2017-10-18T17:21:12.674Z,79.40
2017-10-18T17:23:41.529Z,79.40
2017-10-18T17:26:11.110Z,79.60
2017-10-18T17:28:40.742Z,80.00
2017-10-18T17:31:09.315Z,80.00
2017-10-18T17:33:38.194Z,80.10
2017-10-18T17:36:07.057Z,80.20
2017-10-18T17:38:35.941Z,80.50
2017-10-18T17:41:05.808Z,80.70
2017-10-18T17:43:34.370Z,80.90
2017-10-18T17:46:04.026Z,81.20
2017-10-18T17:48:33.606Z,81.20
2017-10-18T17:51:02.941Z,81.50
2017-10-18T17:53:31.810Z,81.50
2017-10-18T17:56:00.671Z,81.60
2017-10-18T17:58:30.343Z,81.80
2017-10-18T18:00:59.230Z,82.10
2017-10-18T18:03:28.393Z,82.00
2017-10-18T18:05:57.263Z,82.20
2017-10-18T18:08:25.955Z,82.40
2017-10-18T18:10:54.849Z,82.60
2017-10-18T18:13:24.876Z,82.50
2017-10-18T18:15:53.726Z,82.40
2017-10-18T18:18:22.386Z,82.60
2017-10-18T18:20:51.246Z,83.70
2017-10-18T18:23:20.666Z,83.00
2017-10-18T18:25:49.569Z,82.40
2017-10-18T18:28:18.426Z,82.70
2017-10-18T18:30:47.286Z,81.80
2017-10-18T18:33:16.134Z,81.90
2017-10-18T18:35:45.736Z,81.30
2017-10-18T18:38:14.608Z,81.60
2017-10-18T18:40:44.045Z,81.00
2017-10-18T18:43:12.743Z,80.90
2017-10-18T18:45:41.602Z,81.50
2017-10-18T18:48:10.702Z,81.40
2017-10-18T18:50:39.619Z,81.00
2017-10-18T18:53:08.461Z,80.80
2017-10-18T18:55:38.083Z,82.40
2017-10-18T18:58:06.931Z,82.30
2017-10-18T19:00:35.860Z,81.70
2017-10-18T19:03:04.750Z,80.70
2017-10-18T19:05:34.423Z,80.90
2017-10-18T19:08:03.291Z,80.90
2017-10-18T19:10:31.995Z,81.10
2017-10-18T19:13:00.845Z,80.60
2017-10-18T19:15:29.708Z,80.80
2017-10-18T19:17:59.321Z,81.30
2017-10-18T19:20:28.766Z,81.60
2017-10-18T19:22:57.642Z,80.90
2017-10-18T19:25:26.490Z,81.00
2017-10-18T19:27:55.354Z,81.00
2017-10-18T19:30:24.621Z,81.30
2017-10-18T19:32:53.477Z,80.70
2017-10-18T19:35:23.107Z,81.20
2017-10-18T19:37:52.731Z,80.90
2017-10-18T19:40:21.578Z,80.90
2017-10-18T19:42:50.416Z,81.00
2017-10-18T19:45:19.280Z,81.10
2017-10-18T19:47:48.911Z,80.70
2017-10-18T19:50:17.750Z,80.60
2017-10-18T19:52:46.604Z,80.80
2017-10-18T19:55:15.449Z,80.80
2017-10-18T19:57:44.299Z,80.80
2017-10-18T20:00:13.167Z,81.40
2017-10-18T20:02:42.810Z,81.60
2017-10-18T20:05:11.673Z,81.00
2017-10-18T20:07:40.540Z,80.80
2017-10-18T20:10:11.932Z,81.20
2017-10-18T20:12:41.570Z,81.60
2017-10-18T20:15:10.435Z,81.50
2017-10-18T20:17:39.308Z,81.20
2017-10-18T20:20:08.154Z,81.40
2017-10-18T20:22:37.008Z,81.40
2017-10-18T20:25:07.486Z,81.40
2017-10-18T20:27:37.114Z,81.40
2017-10-18T20:30:05.967Z,81.30
2017-10-18T20:32:36.303Z,81.20
2017-10-18T20:35:05.932Z,81.40
2017-10-18T20:37:35.579Z,81.60
2017-10-18T20:40:04.455Z,81.60
2017-10-18T20:42:33.435Z,81.70
2017-10-18T20:45:02.942Z,81.60
2017-10-18T20:47:33.533Z,81.60
2017-10-18T20:50:02.407Z,81.60
2017-10-18T20:52:31.286Z,81.50
2017-10-18T20:55:00.160Z,81.00
2017-10-18T20:57:29.060Z,81.60
2017-10-18T20:59:57.925Z,81.70
2017-10-18T21:02:26.787Z,82.60
2017-10-18T21:04:56.443Z,81.40
2017-10-18T21:07:25.106Z,81.30
2017-10-18T21:09:54.532Z,82.30
2017-10-18T21:12:24.334Z,83.20
2017-10-18T21:14:53.194Z,83.20
2017-10-18T21:17:22.078Z,83.70
2017-10-18T21:19:50.966Z,82.40
2017-10-18T21:22:19.836Z,82.60
2017-10-18T21:24:48.674Z,82.60
2017-10-18T21:27:19.565Z,83.50
2017-10-18T21:32:21.456Z,82.90
2017-10-18T21:34:50.324Z,83.50
2017-10-18T21:37:19.958Z,83.70
2017-10-18T21:39:49.301Z,83.70
2017-10-18T21:42:19.626Z,83.60
2017-10-18T21:44:49.284Z,83.90
2017-10-18T21:47:18.159Z,83.90
2017-10-18T21:49:47.046Z,84.30
2017-10-18T21:52:15.922Z,84.20
2017-10-18T21:54:44.776Z,84.00
2017-10-18T21:57:13.647Z,84.50
2017-10-18T21:59:42.528Z,84.30
2017-10-18T22:02:11.379Z,84.60
2017-10-18T22:04:40.297Z,84.50
2017-10-18T22:07:09.142Z,84.90
2017-10-18T22:09:38.010Z,84.70
2017-10-18T22:12:06.850Z,84.40
2017-10-18T22:14:35.712Z,83.90
2017-10-18T22:17:04.558Z,84.10
2017-10-18T22:19:34.386Z,84.60
2017-10-18T22:22:04.779Z,83.90
2017-10-18T22:24:33.623Z,84.20
2017-10-18T22:27:02.487Z,84.40
2017-10-18T22:29:31.354Z,84.80
2017-10-18T22:32:00.210Z,85.00
2017-10-18T22:34:29.014Z,85.20
2017-10-18T22:36:57.871Z,84.70
2017-10-18T22:39:26.791Z,84.80
2017-10-18T22:41:56.420Z,84.90
2017-10-18T22:44:25.258Z,84.90
2017-10-18T22:46:54.114Z,85.40
2017-10-18T22:49:22.973Z,84.40
2017-10-18T22:51:52.601Z,84.60
2017-10-18T22:54:21.510Z,84.50
2017-10-18T22:56:50.359Z,84.50
2017-10-18T22:59:19.218Z,85.70
2017-10-18T23:01:48.071Z,85.80
2017-10-18T23:04:16.901Z,85.40
2017-10-18T23:06:45.763Z,85.20
2017-10-18T23:09:15.530Z,85.00
2017-10-18T23:11:45.949Z,85.80
2017-10-18T23:14:14.804Z,85.60
2017-10-18T23:16:43.669Z,85.70
2017-10-18T23:19:12.535Z,85.70
2017-10-18T23:21:42.159Z,86.30
2017-10-18T23:24:11.015Z,86.20
2017-10-18T23:26:39.858Z,86.00
2017-10-18T23:29:08.728Z,85.70
2017-10-18T23:31:37.685Z,85.90
2017-10-18T23:34:06.568Z,85.70
2017-10-18T23:36:35.434Z,85.60
2017-10-18T23:39:03.403Z,85.90
2017-10-18T23:41:32.249Z,86.10
2017-10-18T23:44:01.884Z,87.00
2017-10-18T23:46:30.766Z,87.00
2017-10-18T23:49:00.565Z,86.00
2017-10-18T23:51:30.191Z,86.60
2017-10-18T23:53:59.051Z,86.40
2017-10-18T23:56:27.922Z,86.20
2017-10-18T23:58:56.782Z,86.40
